Home   Weather   Portugal   Faro   Past weeks
Flag for Portugal

Past Weather in Faro, Portugal — Yesterday and Last 2 Weeks

Currently: 66 °F. Clear. (Weather station: Faro / Aeroporto, Portugal). See more current weather

Past Weather in Faro — Graph

°F

Faro Temperature Yesterday

Maximum temperature yesterday: 77 °F (at 5:00 pm)
Minimum temperature yesterday: 64 °F (at 1:00 am)
Average temperature yesterday: 70 °F

High & Low Weather Summary for the Past Weeks

 TemperatureHumidityPressure
High86 °F (May 25, 7:30 pm)100% (May 17, 1:30 am)30.15 "Hg (May 17, 1:30 am)
Low52 °F (May 15, 5:30 am)22% (May 25, 7:30 pm)29.83 "Hg (May 30, 3:30 am)
Average66 °F62%29.99 "Hg
* Reported May 15 4:00 am — May 30 4:30 am, Faro. Weather by CustomWeather, © 2024

Note: Actual official high and low records may vary slightly from our data, if they occured in-between our weather recording intervals... More about our weather records

Faro Weather History for the Previous 24 Hours

Scroll right to see more
 ConditionsComfort  
Time TempWeatherWind HumidityBarometerVisibility
4:30 am
Thu, May 30
66 °FMild.3 mph83%29.83 "HgN/A
4:00 am68 °FClear.5 mph83%29.83 "Hg10 mi
3:30 am68 °FClear.2 mph73%29.83 "Hg10 mi
3:00 am68 °FClear.3 mph78%29.86 "Hg10 mi
2:30 am70 °FClear.No wind73%29.86 "Hg10 mi
1:30 am70 °FClear.5 mph73%29.86 "Hg10 mi
1:00 am70 °FClear.3 mph73%29.89 "Hg10 mi
12:30 am72 °FClear.2 mph65%29.89 "Hg10 mi
12:00 am72 °FPassing clouds.5 mph65%29.89 "HgN/A
11:30 pm
Wed, May 29
70 °FPassing clouds.3 mph73%29.92 "HgN/A
11:00 pm70 °FPassing clouds.3 mph78%29.92 "HgN/A
10:30 pm68 °FClear.10 mph83%29.92 "Hg10 mi
10:00 pm68 °FClear.7 mph83%29.92 "Hg10 mi
9:30 pm68 °FClear.7 mph78%29.89 "Hg10 mi
9:00 pm68 °FClear.7 mph78%29.89 "Hg10 mi
8:30 pm70 °FSunny.8 mph69%29.89 "Hg10 mi
8:00 pm72 °FSunny.9 mph61%29.89 "Hg10 mi
7:30 pm73 °FSunny.12 mph57%29.89 "Hg10 mi
7:00 pm73 °FSunny.14 mph57%29.92 "Hg10 mi
6:30 pm75 °FSunny.14 mph57%29.92 "Hg10 mi
6:00 pm75 °FSunny.14 mph57%29.92 "Hg10 mi
5:30 pm75 °FSunny.13 mph57%29.92 "Hg10 mi
5:00 pm77 °FSunny.12 mph57%29.95 "Hg10 mi
4:30 pm75 °FSunny.12 mph57%29.95 "Hg10 mi
4:00 pm75 °FSunny.12 mph61%29.95 "Hg10 mi
3:00 pm75 °FSunny.10 mph65%29.98 "Hg10 mi
2:30 pm75 °FSunny.10 mph61%29.98 "Hg10 mi
2:00 pm75 °FPassing clouds.9 mph61%29.98 "HgN/A
1:30 pm75 °FSunny.8 mph61%29.98 "Hg10 mi
1:00 pm75 °FPassing clouds.7 mph61%30.01 "HgN/A
12:00 pm73 °FPassing clouds.7 mph69%30.01 "HgN/A
11:30 am72 °FSunny.7 mph69%30.01 "Hg10 mi
11:00 am73 °FSunny.8 mph69%30.01 "Hg10 mi
10:30 am73 °FPassing clouds.6 mph69%30.01 "HgN/A
10:00 am73 °FSunny.5 mph61%30.01 "Hg10 mi
9:00 am72 °FSunny.7 mph73%30.01 "Hg10 mi
8:00 am70 °FSunny.8 mph73%30.01 "Hg10 mi
7:30 am68 °FSunny.10 mph78%30.01 "Hg10 mi
7:00 am68 °FSunny.9 mph69%30.01 "Hg10 mi
6:30 am68 °FPassing clouds.9 mph69%30.01 "HgN/A
6:00 am68 °FClear.5 mph69%29.98 "Hg10 mi
5:30 am66 °FClear.2 mph73%29.98 "Hg10 mi
5:00 am66 °FClear.3 mph73%29.98 "Hg10 mi
Weather by CustomWeather, © 2024

See weather overview